Time;durP1;ratioP1;P1;durP2;ratioP2;P2;SDS_P1;SDS_P2;PMS_P1;PMS_P2;Temp;Humidity;BMP_temperature;BMP_pressure;BME280_temperature;BME280_humidity;BME280_pressure;Samples;Min_cycle;Max_cycle;Signal;HPM_P1;HPM_P2
2023/06/24 00:03:18;;;;;;;15.45;11.40;;;;;;;21.95;100.00;100835.72;20999488;28;20047;-82
2023/06/24 00:13:42;;;;;;;14.15;10.38;;;;;;;21.83;100.00;100826.22;20999729;28;20056;-83
2023/06/24 00:24:07;;;;;;;12.90;9.60;;;;;;;21.48;100.00;100829.94;20980753;28;20593;-81
2023/06/24 00:34:30;;;;;;;12.95;9.93;;;;;;;21.48;100.00;100823.66;20974120;28;20123;-82
2023/06/24 00:44:55;;;;;;;13.00;10.48;;;;;;;21.48;100.00;100824.56;20997830;28;20052;-81
2023/06/24 00:55:20;;;;;;;16.52;10.88;;;;;;;21.44;100.00;100828.25;20981614;28;20053;-83
2023/06/24 01:05:46;;;;;;;12.13;9.25;;;;;;;21.24;100.00;100829.72;21002454;28;20060;-83
2023/06/24 01:16:18;;;;;;;12.40;8.90;;;;;;;21.18;100.00;100830.78;20991936;28;20512;-81
2023/06/24 01:27:19;;;;;;;12.57;9.60;;;;;;;21.14;100.00;100831.72;20966759;28;20144;-81
2023/06/24 01:37:47;;;;;;;11.07;8.23;;;;;;;21.01;100.00;100833.84;20971397;28;20045;-80
2023/06/24 01:48:15;;;;;;;15.53;8.80;;;;;;;20.99;100.00;100842.91;20975772;28;20455;-82
2023/06/24 01:58:42;;;;;;;10.77;8.37;;;;;;;20.78;100.00;100846.13;20917930;28;20443;-82
2023/06/24 02:09:07;;;;;;;13.43;9.68;;;;;;;20.69;100.00;100856.16;20980234;28;20056;-82
2023/06/24 02:19:32;;;;;;;14.60;9.45;;;;;;;20.66;100.00;100866.09;20995870;28;20045;-82
2023/06/24 02:29:56;;;;;;;12.95;8.65;;;;;;;20.60;100.00;100855.50;20968520;28;20563;-82
2023/06/24 02:40:24;;;;;;;12.77;9.40;;;;;;;20.46;100.00;100863.88;20974351;28;20512;-81
2023/06/24 02:50:28;;;;;;;13.52;8.90;;;;;;;20.43;100.00;100861.25;20979899;28;20076;-82
2023/06/24 03:00:53;;;;;;;11.15;8.82;;;;;;;20.05;100.00;100870.13;20977879;28;20048;-81
2023/06/24 03:11:27;;;;;;;12.65;9.35;;;;;;;20.00;100.00;100866.66;20977495;28;20056;-82
2023/06/24 03:21:52;;;;;;;18.23;10.35;;;;;;;20.25;100.00;100875.06;21000949;28;20053;-81
2023/06/24 03:32:14;;;;;;;13.57;8.90;;;;;;;20.69;100.00;100874.03;20948514;28;20056;-83
2023/06/24 03:42:39;;;;;;;13.77;10.25;;;;;;;21.03;100.00;100876.78;21023670;28;20040;-83
2023/06/24 03:53:03;;;;;;;11.90;8.48;;;;;;;21.57;100.00;100882.53;20989318;28;20048;-83
2023/06/24 04:03:28;;;;;;;14.48;9.52;;;;;;;22.11;100.00;100871.16;20995511;28;20413;-83
2023/06/24 04:13:51;;;;;;;9.02;6.32;;;;;;;22.75;100.00;100882.63;20978444;28;20044;-84
2023/06/24 04:24:15;;;;;;;10.55;7.13;;;;;;;23.26;100.00;100882.66;20978368;28;20048;-82
2023/06/24 04:34:40;;;;;;;9.38;6.15;;;;;;;23.94;100.00;100890.13;20985113;28;20048;-81
2023/06/24 04:45:06;;;;;;;11.32;6.20;;;;;;;24.69;100.00;100894.38;20985158;28;20044;-82
2023/06/24 04:55:30;;;;;;;9.15;5.78;;;;;;;25.47;100.00;100902.78;21001553;28;20048;-82
2023/06/24 05:05:57;;;;;;;11.65;5.25;;;;;;;26.11;100.00;100905.38;21009486;28;20048;-82
2023/06/24 05:16:21;;;;;;;8.30;5.27;;;;;;;26.87;100.00;100915.25;20983509;28;20424;-84
2023/06/24 05:26:46;;;;;;;9.73;5.28;;;;;;;27.48;100.00;100904.94;21002173;28;20048;-85
2023/06/24 05:37:08;;;;;;;10.07;4.80;;;;;;;28.23;96.84;100907.25;20973093;28;20556;-81
2023/06/24 05:47:32;;;;;;;12.30;4.80;;;;;;;29.04;86.97;100908.97;20974549;28;20431;-80
2023/06/24 05:57:55;;;;;;;8.02;4.88;;;;;;;29.70;77.82;100908.66;20974674;28;20055;-82
2023/06/24 06:08:20;;;;;;;9.02;4.60;;;;;;;30.58;68.03;100910.38;20978724;28;20599;-83
2023/06/24 06:18:43;;;;;;;8.37;4.07;;;;;;;31.40;57.64;100907.56;20958851;28;20156;-83
2023/06/24 06:29:07;;;;;;;8.80;4.75;;;;;;;32.32;50.72;100913.81;20975128;28;20044;-82
2023/06/24 06:39:30;;;;;;;7.03;4.07;;;;;;;32.96;46.41;100923.63;21045860;28;20060;-81
2023/06/24 06:49:54;;;;;;;8.93;4.20;;;;;;;33.51;43.45;100917.59;21011586;28;20131;-83
2023/06/24 07:00:17;;;;;;;10.68;4.55;;;;;;;33.77;41.77;100915.56;20991191;28;20044;-83
2023/06/24 07:10:42;;;;;;;6.80;4.53;;;;;;;33.97;39.72;100909.38;21009117;28;20053;-83
2023/06/24 07:21:05;;;;;;;8.85;3.97;;;;;;;34.13;40.51;100910.91;20978430;28;20045;-83
2023/06/24 07:31:29;;;;;;;5.03;3.70;;;;;;;34.36;38.54;100894.34;20966881;28;20044;-83
2023/06/24 07:41:52;;;;;;;8.05;4.07;;;;;;;34.24;38.06;100903.59;20985076;28;20098;-86
2023/06/24 07:52:02;;;;;;;8.57;4.00;;;;;;;34.06;37.13;100906.91;20980696;28;20103;-83
2023/06/24 08:02:26;;;;;;;7.00;3.80;;;;;;;34.22;37.59;100904.69;20974708;28;20835;-83
2023/06/24 08:12:51;;;;;;;6.65;3.80;;;;;;;34.40;36.74;100892.22;20950438;28;20143;-82
2023/06/24 08:23:13;;;;;;;9.15;3.80;;;;;;;34.51;36.98;100910.56;20983657;28;20144;-84
2023/06/24 08:33:37;;;;;;;7.80;4.00;;;;;;;34.73;36.21;100907.78;20988870;28;20516;-83
2023/06/24 08:44:00;;;;;;;7.68;3.63;;;;;;;34.95;35.58;100915.13;20984804;28;20102;-84
2023/06/24 08:54:26;;;;;;;7.68;4.30;;;;;;;35.22;35.53;100920.19;20945048;28;20048;-84
2023/06/24 09:04:49;;;;;;;8.75;3.88;;;;;;;35.49;34.33;100915.94;20972585;28;20098;-81
2023/06/24 09:15:16;;;;;;;6.25;3.55;;;;;;;35.72;33.38;100916.72;21003094;28;20131;-83
2023/06/24 09:25:38;;;;;;;6.05;3.70;;;;;;;35.77;32.45;100925.44;20986866;28;20528;-83
2023/06/24 09:36:05;;;;;;;6.68;3.88;;;;;;;35.89;31.92;100924.38;20993382;28;20051;-83
2023/06/24 09:46:30;;;;;;;10.48;4.00;;;;;;;36.05;31.66;100936.75;20975608;28;20047;-81
2023/06/24 09:56:57;;;;;;;7.63;3.33;;;;;;;36.09;31.84;100935.47;20970390;28;20183;-84
2023/06/24 10:07:20;;;;;;;5.78;3.28;;;;;;;35.85;31.57;100927.50;20977393;28;20048;-84
2023/06/24 10:17:46;;;;;;;6.18;3.03;;;;;;;36.01;31.21;100922.41;20992753;28;20059;-83
2023/06/24 10:28:09;;;;;;;6.45;3.63;;;;;;;35.67;31.34;100918.97;20999857;28;20045;-84
2023/06/24 10:38:33;;;;;;;5.15;3.47;;;;;;;36.14;30.33;100914.81;20979495;28;20074;-84
2023/06/24 10:48:57;;;;;;;6.30;3.60;;;;;;;36.10;29.99;100917.97;20976459;28;20090;-82
2023/06/24 10:59:21;;;;;;;6.47;3.80;;;;;;;36.17;29.88;100909.06;20976122;28;20048;-84
2023/06/24 11:09:44;;;;;;;6.28;3.72;;;;;;;36.46;30.75;100892.69;20966232;28;20068;-80
2023/06/24 11:20:11;;;;;;;6.97;3.10;;;;;;;36.55;30.76;100879.97;20974354;28;20408;-82
2023/06/24 11:30:36;;;;;;;6.47;3.40;;;;;;;36.52;30.52;100891.25;20984813;28;20052;-81
2023/06/24 11:40:41;;;;;;;6.18;3.70;;;;;;;36.12;30.06;100872.81;20976772;28;20515;-83
2023/06/24 11:51:04;;;;;;;7.90;4.20;;;;;;;35.52;31.77;100868.97;21001318;28;20058;-82
2023/06/24 12:01:33;;;;;;;6.63;4.15;;;;;;;34.93;33.45;100864.94;20978532;28;20448;-81
2023/06/24 12:11:55;;;;;;;9.45;4.28;;;;;;;34.48;33.88;100864.16;20995931;28;20342;-83
2023/06/24 12:22:20;;;;;;;8.68;4.35;;;;;;;34.67;34.08;100853.41;20966849;28;20056;-82
2023/06/24 12:32:45;;;;;;;6.93;4.65;;;;;;;35.07;32.67;100850.94;20989587;28;20064;-82
2023/06/24 12:43:09;;;;;;;10.23;3.83;;;;;;;35.54;31.74;100833.13;20985265;28;20131;-82
2023/06/24 12:53:32;;;;;;;7.32;4.20;;;;;;;35.58;31.82;100823.59;21010964;28;20040;-84
2023/06/24 13:03:57;;;;;;;7.13;3.65;;;;;;;35.91;30.42;100828.88;20978612;28;20051;-84
2023/06/24 13:14:20;;;;;;;5.70;3.53;;;;;;;36.20;29.35;100808.91;20977933;28;20044;-83
2023/06/24 13:24:44;;;;;;;8.77;3.80;;;;;;;35.86;30.26;100809.19;20989188;28;20056;-84
2023/06/24 13:35:07;;;;;;;;;;;;;;;35.62;30.52;100811.34;20974922;28;20053;-84
2023/06/24 13:45:31;;;;;;;7.30;4.13;;;;;;;35.40;30.71;100801.38;20960033;28;20376;-82
2023/06/24 13:55:54;;;;;;;6.13;4.05;;;;;;;35.60;31.08;100805.09;20953175;28;20488;-83
2023/06/24 14:06:20;;;;;;;8.30;4.68;;;;;;;35.46;31.70;100797.19;20944296;28;20052;-84
2023/06/24 14:16:42;;;;;;;8.75;4.60;;;;;;;34.89;34.60;100805.84;20972337;28;20044;-84
2023/06/24 14:27:08;;;;;;;6.55;4.78;;;;;;;34.92;36.01;100800.13;20949154;28;20075;-81
2023/06/24 14:37:30;;;;;;;7.45;5.28;;;;;;;34.39;36.93;100816.47;21002579;28;20488;-82
2023/06/24 14:47:56;;;;;;;6.88;4.40;;;;;;;34.27;37.97;100804.59;20976130;28;20063;-82
2023/06/24 14:58:20;;;;;;;8.30;5.07;;;;;;;34.10;38.13;100806.97;20962816;28;20049;-84
2023/06/24 15:08:44;;;;;;;9.70;5.22;;;;;;;33.17;50.76;100806.16;20991203;28;20132;-79
2023/06/24 15:19:07;;;;;;;9.95;5.22;;;;;;;32.43;54.97;100810.88;20935106;28;20056;-79
2023/06/24 15:29:31;;;;;;;8.73;4.72;;;;;;;32.03;54.57;100806.63;20975888;28;20061;-79
2023/06/24 15:39:54;;;;;;;11.23;4.97;;;;;;;31.40;57.30;100798.41;20964867;28;20053;-78
2023/06/24 15:50:18;;;;;;;12.13;5.50;;;;;;;30.74;61.84;100799.31;20979987;28;20071;-78
2023/06/24 16:00:41;;;;;;;11.88;5.20;;;;;;;30.34;65.09;100809.25;20968648;28;20045;-80
2023/06/24 16:11:07;;;;;;;9.93;5.47;;;;;;;30.07;59.84;100807.34;20980888;28;20496;-78
2023/06/24 16:21:29;;;;;;;9.52;5.30;;;;;;;29.84;57.55;100807.06;20954459;28;20530;-80
2023/06/24 16:31:53;;;;;;;15.75;5.65;;;;;;;29.67;55.79;100798.09;20968645;28;20571;-79
2023/06/24 16:42:16;;;;;;;8.07;5.30;;;;;;;29.47;55.29;100792.19;20974414;28;20049;-80
2023/06/24 16:52:40;;;;;;;8.90;5.72;;;;;;;29.19;56.11;100788.41;20937249;28;20097;-79
2023/06/24 17:03:03;;;;;;;12.30;6.00;;;;;;;28.91;60.07;100800.06;20956532;28;20058;-80
2023/06/24 17:13:27;;;;;;;11.75;6.18;;;;;;;28.60;64.05;100804.66;20968216;28;20378;-77
2023/06/24 17:23:49;;;;;;;9.60;5.68;;;;;;;28.35;66.23;100810.66;20952994;28;20077;-77
2023/06/24 17:34:14;;;;;;;10.20;5.60;;;;;;;28.05;69.38;100803.25;20949597;28;20045;-79
2023/06/24 17:44:36;;;;;;;11.25;6.05;;;;;;;27.79;72.76;100789.34;20956717;28;20425;-79
2023/06/24 17:55:01;;;;;;;12.65;6.40;;;;;;;27.57;75.94;100785.09;20969019;28;20500;-78
2023/06/24 18:05:04;;;;;;;12.38;7.28;;;;;;;27.38;76.81;100792.44;20945631;28;20040;-78
2023/06/24 18:15:28;;;;;;;10.52;6.57;;;;;;;26.96;82.24;100810.03;20965439;28;20463;-77
2023/06/24 18:25:51;;;;;;;12.43;6.90;;;;;;;26.91;82.58;100816.66;20940819;28;20056;-78
2023/06/24 18:36:15;;;;;;;15.95;8.82;;;;;;;26.31;90.81;100832.25;20960302;28;20135;-79
2023/06/24 18:46:38;;;;;;;15.48;8.57;;;;;;;26.24;89.78;100836.22;20933943;28;20115;-80
2023/06/24 18:57:02;;;;;;;14.98;7.00;;;;;;;26.09;91.25;100848.59;20978982;28;20052;-78
2023/06/24 19:07:27;;;;;;;14.63;7.88;;;;;;;25.85;93.54;100867.81;20984946;28;20041;-79
2023/06/24 19:17:51;;;;;;;13.65;7.43;;;;;;;25.77;92.81;100869.03;20939519;28;20043;-78
2023/06/24 19:28:14;;;;;;;9.98;7.70;;;;;;;25.48;98.44;100879.34;20981711;28;20423;-78
2023/06/24 19:38:38;;;;;;;11.25;6.75;;;;;;;25.32;97.90;100898.09;20945626;28;20061;-77
2023/06/24 19:49:02;;;;;;;11.40;8.27;;;;;;;25.04;100.00;100897.47;20963390;28;20056;-78
2023/06/24 19:59:17;;;;;;;9.40;7.22;;;;;;;24.63;100.00;100906.31;20979303;28;20063;-78
2023/06/24 20:09:40;;;;;;;10.18;7.13;;;;;;;24.66;100.00;100913.41;20948085;28;20052;-77
2023/06/24 20:20:04;;;;;;;11.43;8.32;;;;;;;24.53;100.00;100920.25;20965222;28;20102;-77
2023/06/24 20:30:27;;;;;;;11.73;7.75;;;;;;;24.15;100.00;100917.19;21000623;28;20040;-78
2023/06/24 20:40:51;;;;;;;13.88;8.48;;;;;;;24.03;100.00;100908.66;20966655;28;20294;-78
2023/06/24 20:51:14;;;;;;;10.30;7.28;;;;;;;24.04;100.00;100918.50;20977662;28;20098;-79
2023/06/24 21:01:39;;;;;;;12.35;7.82;;;;;;;23.90;100.00;100910.91;20976060;28;20048;-78
2023/06/24 21:12:01;;;;;;;12.45;8.25;;;;;;;23.69;100.00;100917.13;20981153;28;20051;-78
2023/06/24 21:22:26;;;;;;;10.45;7.80;;;;;;;23.62;100.00;100907.50;21006971;28;20056;-78
2023/06/24 21:32:48;;;;;;;13.38;8.98;;;;;;;23.48;100.00;100912.47;20987606;28;20531;-77
2023/06/24 21:43:14;;;;;;;10.15;7.35;;;;;;;23.41;100.00;100904.59;20990079;28;20102;-78
2023/06/24 21:53:37;;;;;;;11.00;8.45;;;;;;;23.28;100.00;100894.28;20941035;28;20044;-77
2023/06/24 22:04:02;;;;;;;13.80;8.40;;;;;;;23.12;100.00;100887.66;20958361;28;20044;-77
2023/06/24 22:14:25;;;;;;;11.10;8.27;;;;;;;23.10;100.00;100889.53;20996565;28;20392;-79
2023/06/24 22:24:49;;;;;;;12.02;8.70;;;;;;;22.97;100.00;100862.97;20986858;28;20439;-78
2023/06/24 22:35:12;;;;;;;13.13;8.35;;;;;;;22.59;100.00;100868.72;20989776;28;20049;-78
2023/06/24 22:45:36;;;;;;;11.90;8.23;;;;;;;22.74;100.00;100851.22;20975289;28;20048;-78
2023/06/24 22:55:59;;;;;;;11.93;8.35;;;;;;;22.65;100.00;100847.00;20986469;28;20504;-78
2023/06/24 23:06:24;;;;;;;12.15;9.43;;;;;;;22.46;100.00;100825.19;21066961;28;20048;-78
2023/06/24 23:16:48;;;;;;;12.77;9.07;;;;;;;22.37;100.00;100816.53;20965089;28;20049;-79
2023/06/24 23:27:13;;;;;;;12.73;9.35;;;;;;;22.35;100.00;100796.88;20983803;28;20081;-78
2023/06/24 23:37:36;;;;;;;13.07;9.98;;;;;;;22.35;100.00;100792.38;20969029;28;20048;-78
2023/06/24 23:48:02;;;;;;;12.30;10.00;;;;;;;22.28;100.00;100785.44;20970936;28;20051;-78
2023/06/24 23:58:24;;;;;;;12.60;8.93;;;;;;;22.22;100.00;100770.38;20969431;28;20465;-78
